sensor_id;sensor_type;location;lat;lon;timestamp;P1;durP1;ratioP1;P2;durP2;ratioP2
62056;SDS011;48016;50.284;18.860;2022-08-20T00:00:30;24.68;;;16.85;;
62056;SDS011;48016;50.284;18.860;2022-08-20T00:02:59;23.18;;;16.00;;
62056;SDS011;48016;50.284;18.860;2022-08-20T00:05:34;25.28;;;16.93;;
62056;SDS011;48016;50.284;18.860;2022-08-20T00:08:04;26.85;;;17.40;;
62056;SDS011;48016;50.284;18.860;2022-08-20T00:10:34;25.35;;;16.73;;
62056;SDS011;48016;50.284;18.860;2022-08-20T00:13:03;21.40;;;15.48;;
62056;SDS011;48016;50.284;18.860;2022-08-20T00:15:34;23.40;;;15.65;;
62056;SDS011;48016;50.284;18.860;2022-08-20T00:18:03;23.93;;;16.03;;
62056;SDS011;48016;50.284;18.860;2022-08-20T00:20:32;18.03;;;14.23;;
62056;SDS011;48016;50.284;18.860;2022-08-20T00:23:02;19.05;;;14.48;;
62056;SDS011;48016;50.284;18.860;2022-08-20T00:25:30;20.43;;;13.85;;
62056;SDS011;48016;50.284;18.860;2022-08-20T00:27:58;20.65;;;14.80;;
62056;SDS011;48016;50.284;18.860;2022-08-20T00:30:29;20.78;;;14.13;;
62056;SDS011;48016;50.284;18.860;2022-08-20T00:32:58;20.73;;;13.28;;
62056;SDS011;48016;50.284;18.860;2022-08-20T00:35:40;19.25;;;13.30;;
62056;SDS011;48016;50.284;18.860;2022-08-20T00:38:11;17.83;;;13.13;;
62056;SDS011;48016;50.284;18.860;2022-08-20T00:40:44;23.33;;;14.38;;
62056;SDS011;48016;50.284;18.860;2022-08-20T00:43:33;19.23;;;13.75;;
62056;SDS011;48016;50.284;18.860;2022-08-20T00:46:07;19.38;;;13.30;;
62056;SDS011;48016;50.284;18.860;2022-08-20T00:48:47;21.03;;;14.18;;
62056;SDS011;48016;50.284;18.860;2022-08-20T00:51:20;21.93;;;14.95;;
62056;SDS011;48016;50.284;18.860;2022-08-20T00:53:54;24.38;;;15.93;;
62056;SDS011;48016;50.284;18.860;2022-08-20T00:56:29;17.68;;;14.10;;
62056;SDS011;48016;50.284;18.860;2022-08-20T00:58:59;20.73;;;14.93;;
62056;SDS011;48016;50.284;18.860;2022-08-20T01:01:28;21.75;;;15.18;;
62056;SDS011;48016;50.284;18.860;2022-08-20T01:03:55;19.00;;;15.05;;
62056;SDS011;48016;50.284;18.860;2022-08-20T01:06:23;18.78;;;14.55;;
62056;SDS011;48016;50.284;18.860;2022-08-20T01:08:50;21.15;;;15.85;;
62056;SDS011;48016;50.284;18.860;2022-08-20T01:11:18;22.95;;;15.63;;
62056;SDS011;48016;50.284;18.860;2022-08-20T01:13:55;20.65;;;14.65;;
62056;SDS011;48016;50.284;18.860;2022-08-20T01:16:25;20.58;;;15.60;;
62056;SDS011;48016;50.284;18.860;2022-08-20T01:18:57;23.83;;;16.70;;
62056;SDS011;48016;50.284;18.860;2022-08-20T01:21:26;23.45;;;18.38;;
62056;SDS011;48016;50.284;18.860;2022-08-20T01:24:02;30.83;;;22.73;;
62056;SDS011;48016;50.284;18.860;2022-08-20T01:26:37;28.88;;;21.30;;
62056;SDS011;48016;50.284;18.860;2022-08-20T01:29:12;24.77;;;18.33;;
62056;SDS011;48016;50.284;18.860;2022-08-20T01:31:43;30.35;;;23.95;;
62056;SDS011;48016;50.284;18.860;2022-08-20T01:34:13;36.95;;;27.48;;
62056;SDS011;48016;50.284;18.860;2022-08-20T01:36:43;29.73;;;23.33;;
62056;SDS011;48016;50.284;18.860;2022-08-20T01:39:20;30.35;;;20.40;;
62056;SDS011;48016;50.284;18.860;2022-08-20T01:44:18;25.75;;;21.35;;
62056;SDS011;48016;50.284;18.860;2022-08-20T01:46:47;28.83;;;21.38;;
62056;SDS011;48016;50.284;18.860;2022-08-20T01:51:50;24.08;;;18.18;;
62056;SDS011;48016;50.284;18.860;2022-08-20T01:54:20;27.30;;;19.13;;
62056;SDS011;48016;50.284;18.860;2022-08-20T01:57:22;24.28;;;17.43;;
62056;SDS011;48016;50.284;18.860;2022-08-20T01:59:43;27.60;;;18.75;;
62056;SDS011;48016;50.284;18.860;2022-08-20T02:02:11;23.85;;;16.95;;
62056;SDS011;48016;50.284;18.860;2022-08-20T02:04:39;28.98;;;18.40;;
62056;SDS011;48016;50.284;18.860;2022-08-20T02:07:07;23.88;;;17.18;;
62056;SDS011;48016;50.284;18.860;2022-08-20T02:09:39;26.10;;;18.33;;
62056;SDS011;48016;50.284;18.860;2022-08-20T02:12:07;23.58;;;17.83;;
62056;SDS011;48016;50.284;18.860;2022-08-20T02:14:39;25.05;;;17.80;;
62056;SDS011;48016;50.284;18.860;2022-08-20T02:17:11;22.98;;;18.00;;
62056;SDS011;48016;50.284;18.860;2022-08-20T02:19:44;22.40;;;17.43;;
62056;SDS011;48016;50.284;18.860;2022-08-20T02:25:02;23.28;;;17.15;;
62056;SDS011;48016;50.284;18.860;2022-08-20T02:27:31;22.50;;;15.45;;
62056;SDS011;48016;50.284;18.860;2022-08-20T02:29:58;26.58;;;16.93;;
62056;SDS011;48016;50.284;18.860;2022-08-20T02:34:53;29.70;;;18.53;;
62056;SDS011;48016;50.284;18.860;2022-08-20T02:44:42;24.03;;;16.83;;
62056;SDS011;48016;50.284;18.860;2022-08-20T02:47:09;28.55;;;18.25;;
62056;SDS011;48016;50.284;18.860;2022-08-20T02:49:36;25.25;;;17.13;;
62056;SDS011;48016;50.284;18.860;2022-08-20T02:52:03;23.13;;;17.95;;
62056;SDS011;48016;50.284;18.860;2022-08-20T02:54:30;28.30;;;19.00;;
62056;SDS011;48016;50.284;18.860;2022-08-20T02:59:24;27.45;;;17.83;;
62056;SDS011;48016;50.284;18.860;2022-08-20T03:04:18;23.80;;;16.50;;
62056;SDS011;48016;50.284;18.860;2022-08-20T03:06:45;25.95;;;17.15;;
62056;SDS011;48016;50.284;18.860;2022-08-20T03:09:13;25.23;;;17.00;;
62056;SDS011;48016;50.284;18.860;2022-08-20T03:11:40;26.50;;;17.47;;
62056;SDS011;48016;50.284;18.860;2022-08-20T03:14:07;22.60;;;16.43;;
62056;SDS011;48016;50.284;18.860;2022-08-20T03:16:34;23.40;;;17.40;;
62056;SDS011;48016;50.284;18.860;2022-08-20T03:21:28;22.63;;;15.30;;
62056;SDS011;48016;50.284;18.860;2022-08-20T03:23:56;20.30;;;14.88;;
62056;SDS011;48016;50.284;18.860;2022-08-20T03:26:23;22.00;;;14.70;;
62056;SDS011;48016;50.284;18.860;2022-08-20T03:28:50;23.88;;;15.15;;
62056;SDS011;48016;50.284;18.860;2022-08-20T03:31:17;19.73;;;14.88;;
62056;SDS011;48016;50.284;18.860;2022-08-20T03:33:44;19.95;;;14.10;;
62056;SDS011;48016;50.284;18.860;2022-08-20T03:41:05;21.98;;;15.83;;
62056;SDS011;48016;50.284;18.860;2022-08-20T03:46:00;21.80;;;14.67;;
62056;SDS011;48016;50.284;18.860;2022-08-20T03:50:55;23.25;;;16.20;;
62056;SDS011;48016;50.284;18.860;2022-08-20T03:53:23;20.48;;;16.15;;
62056;SDS011;48016;50.284;18.860;2022-08-20T03:58:20;25.35;;;16.28;;
62056;SDS011;48016;50.284;18.860;2022-08-20T04:00:49;22.13;;;16.80;;
62056;SDS011;48016;50.284;18.860;2022-08-20T04:03:16;27.48;;;17.50;;
62056;SDS011;48016;50.284;18.860;2022-08-20T04:05:44;24.90;;;16.68;;
62056;SDS011;48016;50.284;18.860;2022-08-20T04:10:44;20.70;;;15.40;;
62056;SDS011;48016;50.284;18.860;2022-08-20T04:13:12;19.40;;;15.85;;
62056;SDS011;48016;50.284;18.860;2022-08-20T04:15:41;24.08;;;16.63;;
62056;SDS011;48016;50.284;18.860;2022-08-20T04:18:08;23.95;;;16.10;;
62056;SDS011;48016;50.284;18.860;2022-08-20T04:20:38;23.18;;;15.78;;
62056;SDS011;48016;50.284;18.860;2022-08-20T04:23:06;26.78;;;18.10;;
62056;SDS011;48016;50.284;18.860;2022-08-20T04:25:35;21.48;;;15.65;;
62056;SDS011;48016;50.284;18.860;2022-08-20T04:28:07;24.18;;;15.25;;
62056;SDS011;48016;50.284;18.860;2022-08-20T04:30:38;32.83;;;18.18;;
62056;SDS011;48016;50.284;18.860;2022-08-20T04:33:05;24.80;;;17.23;;
62056;SDS011;48016;50.284;18.860;2022-08-20T04:35:32;29.85;;;17.05;;
62056;SDS011;48016;50.284;18.860;2022-08-20T04:38:01;27.68;;;16.65;;
62056;SDS011;48016;50.284;18.860;2022-08-20T04:40:34;23.30;;;17.18;;
62056;SDS011;48016;50.284;18.860;2022-08-20T04:43:21;24.15;;;16.33;;
62056;SDS011;48016;50.284;18.860;2022-08-20T04:45:49;26.00;;;17.50;;
62056;SDS011;48016;50.284;18.860;2022-08-20T04:48:21;27.10;;;17.53;;
62056;SDS011;48016;50.284;18.860;2022-08-20T04:50:49;25.90;;;17.20;;
62056;SDS011;48016;50.284;18.860;2022-08-20T04:53:18;28.25;;;17.25;;
62056;SDS011;48016;50.284;18.860;2022-08-20T04:55:47;25.60;;;16.23;;
62056;SDS011;48016;50.284;18.860;2022-08-20T04:58:29;23.23;;;15.93;;
62056;SDS011;48016;50.284;18.860;2022-08-20T05:01:00;25.10;;;15.48;;
62056;SDS011;48016;50.284;18.860;2022-08-20T05:03:31;22.75;;;16.45;;
62056;SDS011;48016;50.284;18.860;2022-08-20T05:06:00;26.45;;;16.33;;
62056;SDS011;48016;50.284;18.860;2022-08-20T05:08:27;26.05;;;16.50;;
62056;SDS011;48016;50.284;18.860;2022-08-20T05:10:55;23.68;;;16.08;;
62056;SDS011;48016;50.284;18.860;2022-08-20T05:13:24;21.88;;;15.88;;
62056;SDS011;48016;50.284;18.860;2022-08-20T05:15:52;25.60;;;15.45;;
62056;SDS011;48016;50.284;18.860;2022-08-20T05:18:20;22.98;;;17.13;;
62056;SDS011;48016;50.284;18.860;2022-08-20T05:20:50;24.85;;;16.55;;
62056;SDS011;48016;50.284;18.860;2022-08-20T05:23:18;21.75;;;16.38;;
62056;SDS011;48016;50.284;18.860;2022-08-20T05:25:47;25.70;;;17.43;;
62056;SDS011;48016;50.284;18.860;2022-08-20T05:28:22;27.20;;;17.88;;
62056;SDS011;48016;50.284;18.860;2022-08-20T05:30:52;24.30;;;16.67;;
62056;SDS011;48016;50.284;18.860;2022-08-20T05:33:20;25.60;;;18.08;;
62056;SDS011;48016;50.284;18.860;2022-08-20T05:35:49;22.23;;;15.00;;
62056;SDS011;48016;50.284;18.860;2022-08-20T05:38:19;20.95;;;16.30;;
62056;SDS011;48016;50.284;18.860;2022-08-20T05:40:50;22.53;;;15.55;;
62056;SDS011;48016;50.284;18.860;2022-08-20T05:43:18;21.20;;;15.33;;
62056;SDS011;48016;50.284;18.860;2022-08-20T05:45:47;21.38;;;15.45;;
62056;SDS011;48016;50.284;18.860;2022-08-20T05:48:19;19.15;;;15.10;;
62056;SDS011;48016;50.284;18.860;2022-08-20T05:50:49;20.13;;;14.58;;
62056;SDS011;48016;50.284;18.860;2022-08-20T05:53:17;20.80;;;15.73;;
62056;SDS011;48016;50.284;18.860;2022-08-20T05:55:45;20.98;;;15.73;;
62056;SDS011;48016;50.284;18.860;2022-08-20T05:58:17;24.78;;;16.58;;
62056;SDS011;48016;50.284;18.860;2022-08-20T06:00:50;21.63;;;17.45;;
62056;SDS011;48016;50.284;18.860;2022-08-20T06:03:19;23.70;;;17.18;;
62056;SDS011;48016;50.284;18.860;2022-08-20T06:06:06;20.18;;;16.25;;
62056;SDS011;48016;50.284;18.860;2022-08-20T06:08:34;20.28;;;16.18;;
62056;SDS011;48016;50.284;18.860;2022-08-20T06:11:02;17.73;;;14.97;;
62056;SDS011;48016;50.284;18.860;2022-08-20T06:13:29;20.33;;;15.88;;
62056;SDS011;48016;50.284;18.860;2022-08-20T06:15:57;23.90;;;16.27;;
62056;SDS011;48016;50.284;18.860;2022-08-20T06:18:24;20.85;;;15.83;;
62056;SDS011;48016;50.284;18.860;2022-08-20T06:20:51;20.05;;;14.98;;
62056;SDS011;48016;50.284;18.860;2022-08-20T06:23:19;19.80;;;15.25;;
62056;SDS011;48016;50.284;18.860;2022-08-20T06:25:46;20.58;;;14.78;;
62056;SDS011;48016;50.284;18.860;2022-08-20T06:28:16;22.90;;;14.50;;
62056;SDS011;48016;50.284;18.860;2022-08-20T06:30:44;18.33;;;13.65;;
62056;SDS011;48016;50.284;18.860;2022-08-20T06:33:11;17.23;;;13.90;;
62056;SDS011;48016;50.284;18.860;2022-08-20T06:35:38;18.10;;;13.18;;
62056;SDS011;48016;50.284;18.860;2022-08-20T06:38:05;16.63;;;13.68;;
62056;SDS011;48016;50.284;18.860;2022-08-20T06:40:36;19.93;;;14.15;;
62056;SDS011;48016;50.284;18.860;2022-08-20T06:45:30;19.25;;;14.40;;
62056;SDS011;48016;50.284;18.860;2022-08-20T06:47:59;20.60;;;14.03;;
62056;SDS011;48016;50.284;18.860;2022-08-20T06:50:33;19.00;;;13.55;;
62056;SDS011;48016;50.284;18.860;2022-08-20T06:53:05;17.28;;;13.95;;
62056;SDS011;48016;50.284;18.860;2022-08-20T06:55:33;18.18;;;13.78;;
62056;SDS011;48016;50.284;18.860;2022-08-20T06:58:03;20.05;;;13.83;;
62056;SDS011;48016;50.284;18.860;2022-08-20T07:00:34;18.45;;;12.58;;
62056;SDS011;48016;50.284;18.860;2022-08-20T07:03:03;15.40;;;12.90;;
62056;SDS011;48016;50.284;18.860;2022-08-20T07:05:32;15.70;;;12.88;;
62056;SDS011;48016;50.284;18.860;2022-08-20T07:08:02;14.85;;;11.38;;
62056;SDS011;48016;50.284;18.860;2022-08-20T07:10:30;13.05;;;10.38;;
62056;SDS011;48016;50.284;18.860;2022-08-20T07:12:57;14.93;;;10.45;;
62056;SDS011;48016;50.284;18.860;2022-08-20T07:15:26;14.20;;;10.58;;
62056;SDS011;48016;50.284;18.860;2022-08-20T07:17:54;11.60;;;9.48;;
62056;SDS011;48016;50.284;18.860;2022-08-20T07:20:23;13.08;;;9.65;;
62056;SDS011;48016;50.284;18.860;2022-08-20T07:22:50;11.90;;;9.50;;
62056;SDS011;48016;50.284;18.860;2022-08-20T07:25:19;17.28;;;9.78;;
62056;SDS011;48016;50.284;18.860;2022-08-20T07:27:47;14.03;;;9.20;;
62056;SDS011;48016;50.284;18.860;2022-08-20T07:30:22;15.75;;;8.80;;
62056;SDS011;48016;50.284;18.860;2022-08-20T07:33:09;12.03;;;8.55;;
62056;SDS011;48016;50.284;18.860;2022-08-20T07:35:40;12.78;;;8.50;;
62056;SDS011;48016;50.284;18.860;2022-08-20T07:38:12;13.58;;;9.10;;
62056;SDS011;48016;50.284;18.860;2022-08-20T07:40:50;14.30;;;8.73;;
62056;SDS011;48016;50.284;18.860;2022-08-20T07:43:23;13.80;;;8.15;;
62056;SDS011;48016;50.284;18.860;2022-08-20T07:45:51;11.40;;;8.00;;
62056;SDS011;48016;50.284;18.860;2022-08-20T07:48:22;12.58;;;7.63;;
62056;SDS011;48016;50.284;18.860;2022-08-20T07:50:57;14.77;;;9.20;;
62056;SDS011;48016;50.284;18.860;2022-08-20T07:53:25;13.00;;;8.08;;
62056;SDS011;48016;50.284;18.860;2022-08-20T07:55:53;13.45;;;7.33;;
62056;SDS011;48016;50.284;18.860;2022-08-20T07:58:20;10.88;;;7.38;;
62056;SDS011;48016;50.284;18.860;2022-08-20T08:00:50;14.70;;;7.85;;
62056;SDS011;48016;50.284;18.860;2022-08-20T08:03:18;13.45;;;7.15;;
62056;SDS011;48016;50.284;18.860;2022-08-20T08:05:45;12.48;;;7.30;;
62056;SDS011;48016;50.284;18.860;2022-08-20T08:08:19;12.15;;;8.13;;
62056;SDS011;48016;50.284;18.860;2022-08-20T08:10:50;11.70;;;7.90;;
62056;SDS011;48016;50.284;18.860;2022-08-20T08:13:21;13.25;;;7.63;;
62056;SDS011;48016;50.284;18.860;2022-08-20T08:15:52;10.03;;;7.03;;
62056;SDS011;48016;50.284;18.860;2022-08-20T08:18:25;14.70;;;7.80;;
62056;SDS011;48016;50.284;18.860;2022-08-20T08:21:03;12.60;;;7.68;;
62056;SDS011;48016;50.284;18.860;2022-08-20T08:23:31;11.50;;;8.00;;
62056;SDS011;48016;50.284;18.860;2022-08-20T08:26:00;13.30;;;7.58;;
62056;SDS011;48016;50.284;18.860;2022-08-20T08:28:27;10.50;;;7.40;;
62056;SDS011;48016;50.284;18.860;2022-08-20T08:30:55;13.63;;;6.95;;
62056;SDS011;48016;50.284;18.860;2022-08-20T08:33:23;10.33;;;6.80;;
62056;SDS011;48016;50.284;18.860;2022-08-20T08:36:06;9.75;;;6.35;;
62056;SDS011;48016;50.284;18.860;2022-08-20T08:38:36;11.00;;;5.87;;
62056;SDS011;48016;50.284;18.860;2022-08-20T08:43:51;13.70;;;7.20;;
62056;SDS011;48016;50.284;18.860;2022-08-20T08:46:24;18.33;;;7.93;;
62056;SDS011;48016;50.284;18.860;2022-08-20T08:48:53;12.38;;;7.08;;
62056;SDS011;48016;50.284;18.860;2022-08-20T08:51:27;14.40;;;7.50;;
62056;SDS011;48016;50.284;18.860;2022-08-20T08:54:03;13.87;;;7.80;;
62056;SDS011;48016;50.284;18.860;2022-08-20T08:56:33;12.53;;;8.05;;
62056;SDS011;48016;50.284;18.860;2022-08-20T08:59:03;13.10;;;7.90;;
62056;SDS011;48016;50.284;18.860;2022-08-20T09:01:35;11.05;;;7.28;;
62056;SDS011;48016;50.284;18.860;2022-08-20T09:04:11;16.33;;;8.83;;
62056;SDS011;48016;50.284;18.860;2022-08-20T09:06:40;14.98;;;8.93;;
62056;SDS011;48016;50.284;18.860;2022-08-20T09:09:29;12.63;;;8.57;;
62056;SDS011;48016;50.284;18.860;2022-08-20T09:12:04;15.63;;;9.35;;
62056;SDS011;48016;50.284;18.860;2022-08-20T09:14:53;13.43;;;8.90;;
62056;SDS011;48016;50.284;18.860;2022-08-20T09:17:21;11.55;;;7.98;;
62056;SDS011;48016;50.284;18.860;2022-08-20T09:19:49;14.28;;;8.90;;
62056;SDS011;48016;50.284;18.860;2022-08-20T09:22:19;15.00;;;8.33;;
62056;SDS011;48016;50.284;18.860;2022-08-20T09:24:48;9.90;;;7.88;;
62056;SDS011;48016;50.284;18.860;2022-08-20T09:27:16;9.67;;;7.57;;
62056;SDS011;48016;50.284;18.860;2022-08-20T09:29:44;11.85;;;8.10;;
62056;SDS011;48016;50.284;18.860;2022-08-20T09:32:13;10.35;;;7.10;;
62056;SDS011;48016;50.284;18.860;2022-08-20T09:34:45;11.25;;;6.53;;
62056;SDS011;48016;50.284;18.860;2022-08-20T09:37:14;12.28;;;7.88;;
62056;SDS011;48016;50.284;18.860;2022-08-20T09:39:42;14.83;;;7.93;;
62056;SDS011;48016;50.284;18.860;2022-08-20T09:42:10;9.90;;;8.03;;
62056;SDS011;48016;50.284;18.860;2022-08-20T09:44:42;9.75;;;6.95;;
62056;SDS011;48016;50.284;18.860;2022-08-20T09:47:09;12.88;;;7.95;;
62056;SDS011;48016;50.284;18.860;2022-08-20T09:49:37;13.48;;;7.78;;
62056;SDS011;48016;50.284;18.860;2022-08-20T09:52:07;11.75;;;7.88;;
62056;SDS011;48016;50.284;18.860;2022-08-20T09:54:36;12.38;;;7.93;;
62056;SDS011;48016;50.284;18.860;2022-08-20T09:57:06;12.13;;;7.53;;
62056;SDS011;48016;50.284;18.860;2022-08-20T09:59:35;14.98;;;8.38;;
62056;SDS011;48016;50.284;18.860;2022-08-20T10:02:02;12.45;;;8.55;;
62056;SDS011;48016;50.284;18.860;2022-08-20T10:04:30;15.43;;;8.27;;
62056;SDS011;48016;50.284;18.860;2022-08-20T10:06:57;12.03;;;8.83;;
62056;SDS011;48016;50.284;18.860;2022-08-20T10:09:24;13.08;;;8.18;;
62056;SDS011;48016;50.284;18.860;2022-08-20T10:11:51;14.60;;;8.35;;
62056;SDS011;48016;50.284;18.860;2022-08-20T10:14:18;14.90;;;8.50;;
62056;SDS011;48016;50.284;18.860;2022-08-20T10:16:45;13.55;;;8.63;;
62056;SDS011;48016;50.284;18.860;2022-08-20T10:19:12;13.48;;;9.13;;
62056;SDS011;48016;50.284;18.860;2022-08-20T10:21:39;13.45;;;8.65;;
62056;SDS011;48016;50.284;18.860;2022-08-20T10:24:06;16.25;;;8.58;;
62056;SDS011;48016;50.284;18.860;2022-08-20T10:26:34;14.03;;;8.25;;
62056;SDS011;48016;50.284;18.860;2022-08-20T10:29:04;12.07;;;6.87;;
62056;SDS011;48016;50.284;18.860;2022-08-20T10:31:31;12.38;;;6.93;;
62056;SDS011;48016;50.284;18.860;2022-08-20T10:33:58;16.63;;;7.55;;
62056;SDS011;48016;50.284;18.860;2022-08-20T10:36:25;14.07;;;8.13;;
62056;SDS011;48016;50.284;18.860;2022-08-20T10:38:52;15.03;;;9.08;;
62056;SDS011;48016;50.284;18.860;2022-08-20T10:41:19;17.83;;;10.30;;
62056;SDS011;48016;50.284;18.860;2022-08-20T10:43:46;15.20;;;7.50;;
62056;SDS011;48016;50.284;18.860;2022-08-20T10:46:13;14.43;;;7.67;;
62056;SDS011;48016;50.284;18.860;2022-08-20T10:48:41;12.13;;;6.68;;
62056;SDS011;48016;50.284;18.860;2022-08-20T10:51:08;12.73;;;7.80;;
62056;SDS011;48016;50.284;18.860;2022-08-20T10:53:35;15.55;;;8.30;;
62056;SDS011;48016;50.284;18.860;2022-08-20T10:56:02;16.05;;;7.68;;
62056;SDS011;48016;50.284;18.860;2022-08-20T10:58:30;14.28;;;8.00;;
62056;SDS011;48016;50.284;18.860;2022-08-20T11:00:57;16.75;;;8.03;;
62056;SDS011;48016;50.284;18.860;2022-08-20T11:03:24;16.68;;;8.15;;
62056;SDS011;48016;50.284;18.860;2022-08-20T11:05:51;14.15;;;8.93;;
62056;SDS011;48016;50.284;18.860;2022-08-20T11:08:18;17.13;;;8.77;;
62056;SDS011;48016;50.284;18.860;2022-08-20T11:10:45;15.73;;;8.18;;
62056;SDS011;48016;50.284;18.860;2022-08-20T11:13:12;13.60;;;7.68;;
62056;SDS011;48016;50.284;18.860;2022-08-20T11:15:40;12.15;;;7.70;;
62056;SDS011;48016;50.284;18.860;2022-08-20T11:18:09;14.67;;;7.60;;
62056;SDS011;48016;50.284;18.860;2022-08-20T11:20:38;14.85;;;8.43;;
62056;SDS011;48016;50.284;18.860;2022-08-20T11:23:05;16.43;;;8.15;;
62056;SDS011;48016;50.284;18.860;2022-08-20T11:25:32;18.03;;;8.93;;
62056;SDS011;48016;50.284;18.860;2022-08-20T11:28:00;18.87;;;9.13;;
62056;SDS011;48016;50.284;18.860;2022-08-20T11:30:30;13.83;;;8.20;;
62056;SDS011;48016;50.284;18.860;2022-08-20T11:33:00;12.43;;;7.70;;
62056;SDS011;48016;50.284;18.860;2022-08-20T11:35:28;12.10;;;7.50;;
62056;SDS011;48016;50.284;18.860;2022-08-20T11:37:56;12.53;;;6.75;;
62056;SDS011;48016;50.284;18.860;2022-08-20T11:40:24;15.13;;;7.45;;
62056;SDS011;48016;50.284;18.860;2022-08-20T11:42:53;11.47;;;7.30;;
62056;SDS011;48016;50.284;18.860;2022-08-20T11:45:20;18.03;;;8.68;;
62056;SDS011;48016;50.284;18.860;2022-08-20T11:47:47;19.38;;;11.03;;
62056;SDS011;48016;50.284;18.860;2022-08-20T11:50:16;22.50;;;15.53;;
62056;SDS011;48016;50.284;18.860;2022-08-20T11:52:46;18.30;;;9.23;;
62056;SDS011;48016;50.284;18.860;2022-08-20T11:55:13;17.35;;;8.50;;
62056;SDS011;48016;50.284;18.860;2022-08-20T11:57:43;15.70;;;7.77;;
62056;SDS011;48016;50.284;18.860;2022-08-20T12:00:14;15.40;;;8.18;;
62056;SDS011;48016;50.284;18.860;2022-08-20T12:02:47;12.88;;;8.00;;
62056;SDS011;48016;50.284;18.860;2022-08-20T12:05:17;16.30;;;8.25;;
62056;SDS011;48016;50.284;18.860;2022-08-20T12:07:45;14.45;;;8.30;;
62056;SDS011;48016;50.284;18.860;2022-08-20T12:10:12;16.20;;;9.27;;
62056;SDS011;48016;50.284;18.860;2022-08-20T12:12:40;18.28;;;8.70;;
62056;SDS011;48016;50.284;18.860;2022-08-20T12:15:08;15.70;;;9.63;;
62056;SDS011;48016;50.284;18.860;2022-08-20T12:17:36;13.53;;;8.48;;
62056;SDS011;48016;50.284;18.860;2022-08-20T12:20:06;13.70;;;7.97;;
62056;SDS011;48016;50.284;18.860;2022-08-20T12:22:36;13.23;;;7.45;;
62056;SDS011;48016;50.284;18.860;2022-08-20T12:25:03;15.80;;;7.40;;
62056;SDS011;48016;50.284;18.860;2022-08-20T12:27:32;15.97;;;8.07;;
62056;SDS011;48016;50.284;18.860;2022-08-20T12:30:02;14.15;;;8.08;;
62056;SDS011;48016;50.284;18.860;2022-08-20T12:32:32;13.83;;;8.73;;
62056;SDS011;48016;50.284;18.860;2022-08-20T12:35:00;15.30;;;9.40;;
62056;SDS011;48016;50.284;18.860;2022-08-20T12:37:29;14.03;;;9.63;;
62056;SDS011;48016;50.284;18.860;2022-08-20T12:39:58;20.95;;;9.83;;
62056;SDS011;48016;50.284;18.860;2022-08-20T12:42:26;15.95;;;9.50;;
62056;SDS011;48016;50.284;18.860;2022-08-20T12:44:57;15.30;;;10.00;;
62056;SDS011;48016;50.284;18.860;2022-08-20T12:47:29;19.43;;;9.63;;
62056;SDS011;48016;50.284;18.860;2022-08-20T12:50:00;13.08;;;9.30;;
62056;SDS011;48016;50.284;18.860;2022-08-20T12:52:30;14.93;;;10.30;;
62056;SDS011;48016;50.284;18.860;2022-08-20T12:54:58;20.15;;;10.58;;
62056;SDS011;48016;50.284;18.860;2022-08-20T12:57:28;21.50;;;11.30;;
62056;SDS011;48016;50.284;18.860;2022-08-20T13:00:08;15.98;;;10.85;;
62056;SDS011;48016;50.284;18.860;2022-08-20T13:02:41;17.03;;;11.53;;
62056;SDS011;48016;50.284;18.860;2022-08-20T13:05:08;18.65;;;12.25;;
62056;SDS011;48016;50.284;18.860;2022-08-20T13:07:38;15.83;;;10.60;;
62056;SDS011;48016;50.284;18.860;2022-08-20T13:10:07;20.28;;;12.23;;
62056;SDS011;48016;50.284;18.860;2022-08-20T13:12:36;19.63;;;12.73;;
62056;SDS011;48016;50.284;18.860;2022-08-20T13:15:03;20.60;;;12.93;;
62056;SDS011;48016;50.284;18.860;2022-08-20T13:17:31;22.93;;;13.28;;
62056;SDS011;48016;50.284;18.860;2022-08-20T13:19:58;24.18;;;14.45;;
62056;SDS011;48016;50.284;18.860;2022-08-20T13:22:25;20.05;;;12.75;;
62056;SDS011;48016;50.284;18.860;2022-08-20T13:24:52;23.38;;;13.13;;
62056;SDS011;48016;50.284;18.860;2022-08-20T13:29:48;19.38;;;11.40;;
62056;SDS011;48016;50.284;18.860;2022-08-20T13:32:17;19.53;;;11.00;;
62056;SDS011;48016;50.284;18.860;2022-08-20T13:34:45;17.85;;;11.03;;
62056;SDS011;48016;50.284;18.860;2022-08-20T13:37:17;18.70;;;10.53;;
62056;SDS011;48016;50.284;18.860;2022-08-20T13:39:46;13.38;;;8.85;;
62056;SDS011;48016;50.284;18.860;2022-08-20T13:42:13;16.33;;;8.83;;
62056;SDS011;48016;50.284;18.860;2022-08-20T13:44:42;16.75;;;8.58;;
62056;SDS011;48016;50.284;18.860;2022-08-20T13:47:19;19.55;;;9.08;;
62056;SDS011;48016;50.284;18.860;2022-08-20T13:49:57;17.37;;;9.27;;
62056;SDS011;48016;50.284;18.860;2022-08-20T13:52:26;13.03;;;9.98;;
62056;SDS011;48016;50.284;18.860;2022-08-20T13:54:53;14.17;;;10.10;;
62056;SDS011;48016;50.284;18.860;2022-08-20T13:57:21;16.03;;;8.93;;
62056;SDS011;48016;50.284;18.860;2022-08-20T13:59:51;18.75;;;10.03;;
62056;SDS011;48016;50.284;18.860;2022-08-20T14:02:21;17.28;;;9.48;;
62056;SDS011;48016;50.284;18.860;2022-08-20T14:04:49;14.93;;;9.85;;
62056;SDS011;48016;50.284;18.860;2022-08-20T14:07:18;15.95;;;9.98;;
62056;SDS011;48016;50.284;18.860;2022-08-20T14:09:55;15.93;;;9.95;;
62056;SDS011;48016;50.284;18.860;2022-08-20T14:12:25;15.43;;;8.85;;
62056;SDS011;48016;50.284;18.860;2022-08-20T14:14:53;14.10;;;9.10;;
62056;SDS011;48016;50.284;18.860;2022-08-20T14:17:31;15.60;;;9.40;;
62056;SDS011;48016;50.284;18.860;2022-08-20T14:20:03;14.08;;;9.05;;
62056;SDS011;48016;50.284;18.860;2022-08-20T14:22:33;17.95;;;10.28;;
62056;SDS011;48016;50.284;18.860;2022-08-20T14:25:01;15.85;;;9.73;;
62056;SDS011;48016;50.284;18.860;2022-08-20T14:27:30;15.03;;;9.78;;
62056;SDS011;48016;50.284;18.860;2022-08-20T14:29:59;12.23;;;9.48;;
62056;SDS011;48016;50.284;18.860;2022-08-20T14:32:27;15.33;;;9.33;;
62056;SDS011;48016;50.284;18.860;2022-08-20T14:37:31;15.38;;;9.23;;
62056;SDS011;48016;50.284;18.860;2022-08-20T14:40:01;14.93;;;9.73;;
62056;SDS011;48016;50.284;18.860;2022-08-20T14:42:29;14.33;;;8.60;;
62056;SDS011;48016;50.284;18.860;2022-08-20T14:47:26;14.18;;;10.35;;
62056;SDS011;48016;50.284;18.860;2022-08-20T14:49:54;13.30;;;9.80;;
62056;SDS011;48016;50.284;18.860;2022-08-20T14:52:23;14.50;;;10.08;;
62056;SDS011;48016;50.284;18.860;2022-08-20T14:54:50;13.55;;;10.98;;
62056;SDS011;48016;50.284;18.860;2022-08-20T14:57:18;15.38;;;11.50;;
62056;SDS011;48016;50.284;18.860;2022-08-20T14:59:46;16.03;;;11.50;;
62056;SDS011;48016;50.284;18.860;2022-08-20T15:02:14;15.80;;;10.63;;
62056;SDS011;48016;50.284;18.860;2022-08-20T15:04:43;15.65;;;10.98;;
62056;SDS011;48016;50.284;18.860;2022-08-20T15:07:17;11.80;;;10.15;;
62056;SDS011;48016;50.284;18.860;2022-08-20T15:09:52;13.83;;;10.55;;
62056;SDS011;48016;50.284;18.860;2022-08-20T15:12:20;16.08;;;9.90;;
62056;SDS011;48016;50.284;18.860;2022-08-20T15:14:49;13.25;;;9.98;;
62056;SDS011;48016;50.284;18.860;2022-08-20T15:17:19;13.63;;;10.45;;
62056;SDS011;48016;50.284;18.860;2022-08-20T15:19:51;11.80;;;9.90;;